sensor_id;sensor_type;location;lat;lon;timestamp;P1;durP1;ratioP1;P2;durP2;ratioP2
75814;SDS011;64451;45.574;14.224;2023-02-03T00:00:36;31.58;;;14.55;;
75814;SDS011;64451;45.574;14.224;2023-02-03T00:02:37;48.55;;;18.80;;
75814;SDS011;64451;45.574;14.224;2023-02-03T00:04:37;56.08;;;19.35;;
75814;SDS011;64451;45.574;14.224;2023-02-03T00:06:38;41.42;;;15.50;;
75814;SDS011;64451;45.574;14.224;2023-02-03T00:08:39;62.65;;;18.35;;
75814;SDS011;64451;45.574;14.224;2023-02-03T00:10:40;55.95;;;19.67;;
75814;SDS011;64451;45.574;14.224;2023-02-03T00:12:40;43.38;;;16.42;;
75814;SDS011;64451;45.574;14.224;2023-02-03T00:14:41;72.65;;;19.05;;
75814;SDS011;64451;45.574;14.224;2023-02-03T00:16:41;52.05;;;17.02;;
75814;SDS011;64451;45.574;14.224;2023-02-03T00:18:41;44.97;;;15.90;;
75814;SDS011;64451;45.574;14.224;2023-02-03T00:20:42;58.20;;;15.93;;
75814;SDS011;64451;45.574;14.224;2023-02-03T00:22:42;54.92;;;14.75;;
75814;SDS011;64451;45.574;14.224;2023-02-03T00:24:42;43.00;;;15.73;;
75814;SDS011;64451;45.574;14.224;2023-02-03T00:26:43;35.97;;;13.98;;
75814;SDS011;64451;45.574;14.224;2023-02-03T00:28:43;42.55;;;17.15;;
75814;SDS011;64451;45.574;14.224;2023-02-03T00:30:44;66.50;;;16.08;;
75814;SDS011;64451;45.574;14.224;2023-02-03T00:32:44;46.72;;;11.00;;
75814;SDS011;64451;45.574;14.224;2023-02-03T00:34:45;32.72;;;14.32;;
75814;SDS011;64451;45.574;14.224;2023-02-03T00:36:45;30.25;;;13.80;;
75814;SDS011;64451;45.574;14.224;2023-02-03T00:38:47;41.45;;;16.17;;
75814;SDS011;64451;45.574;14.224;2023-02-03T00:40:52;41.33;;;18.00;;
75814;SDS011;64451;45.574;14.224;2023-02-03T00:42:52;45.75;;;19.23;;
75814;SDS011;64451;45.574;14.224;2023-02-03T00:44:53;48.63;;;16.40;;
75814;SDS011;64451;45.574;14.224;2023-02-03T00:46:54;44.15;;;16.00;;
75814;SDS011;64451;45.574;14.224;2023-02-03T00:48:54;45.97;;;16.27;;
75814;SDS011;64451;45.574;14.224;2023-02-03T00:50:54;32.45;;;16.00;;
75814;SDS011;64451;45.574;14.224;2023-02-03T00:52:55;30.23;;;14.55;;
75814;SDS011;64451;45.574;14.224;2023-02-03T00:54:55;49.90;;;18.23;;
75814;SDS011;64451;45.574;14.224;2023-02-03T00:56:55;69.90;;;17.17;;
75814;SDS011;64451;45.574;14.224;2023-02-03T00:58:56;52.42;;;15.23;;
75814;SDS011;64451;45.574;14.224;2023-02-03T01:00:56;60.47;;;18.08;;
75814;SDS011;64451;45.574;14.224;2023-02-03T01:02:56;41.20;;;14.23;;
75814;SDS011;64451;45.574;14.224;2023-02-03T01:04:57;53.40;;;17.38;;
75814;SDS011;64451;45.574;14.224;2023-02-03T01:06:57;43.42;;;13.55;;
75814;SDS011;64451;45.574;14.224;2023-02-03T01:09:00;49.08;;;15.93;;
75814;SDS011;64451;45.574;14.224;2023-02-03T01:11:08;43.53;;;13.85;;
75814;SDS011;64451;45.574;14.224;2023-02-03T01:13:11;42.67;;;11.63;;
75814;SDS011;64451;45.574;14.224;2023-02-03T01:15:11;38.92;;;14.32;;
75814;SDS011;64451;45.574;14.224;2023-02-03T01:17:11;27.50;;;14.05;;
75814;SDS011;64451;45.574;14.224;2023-02-03T01:19:12;38.80;;;16.23;;
75814;SDS011;64451;45.574;14.224;2023-02-03T01:21:15;38.45;;;14.93;;
75814;SDS011;64451;45.574;14.224;2023-02-03T01:23:17;31.17;;;14.48;;
75814;SDS011;64451;45.574;14.224;2023-02-03T01:25:17;46.28;;;15.00;;
75814;SDS011;64451;45.574;14.224;2023-02-03T01:27:18;46.42;;;15.52;;
75814;SDS011;64451;45.574;14.224;2023-02-03T01:29:19;39.88;;;14.20;;
75814;SDS011;64451;45.574;14.224;2023-02-03T01:31:20;38.97;;;16.33;;
75814;SDS011;64451;45.574;14.224;2023-02-03T01:33:26;43.50;;;16.35;;
75814;SDS011;64451;45.574;14.224;2023-02-03T01:35:26;36.03;;;15.50;;
75814;SDS011;64451;45.574;14.224;2023-02-03T01:37:26;31.70;;;11.73;;
75814;SDS011;64451;45.574;14.224;2023-02-03T01:39:27;24.27;;;15.07;;
75814;SDS011;64451;45.574;14.224;2023-02-03T01:41:31;60.17;;;14.05;;
75814;SDS011;64451;45.574;14.224;2023-02-03T01:43:34;33.65;;;14.13;;
75814;SDS011;64451;45.574;14.224;2023-02-03T01:45:36;36.97;;;13.20;;
75814;SDS011;64451;45.574;14.224;2023-02-03T01:47:42;36.47;;;14.18;;
75814;SDS011;64451;45.574;14.224;2023-02-03T01:49:48;44.08;;;14.65;;
75814;SDS011;64451;45.574;14.224;2023-02-03T01:51:55;40.65;;;15.90;;
75814;SDS011;64451;45.574;14.224;2023-02-03T01:53:56;41.97;;;14.90;;
75814;SDS011;64451;45.574;14.224;2023-02-03T01:55:57;40.63;;;17.67;;
75814;SDS011;64451;45.574;14.224;2023-02-03T02:00:05;75.93;;;17.38;;
75814;SDS011;64451;45.574;14.224;2023-02-03T02:02:07;43.77;;;19.03;;
75814;SDS011;64451;45.574;14.224;2023-02-03T02:04:08;38.05;;;14.98;;
75814;SDS011;64451;45.574;14.224;2023-02-03T02:06:10;32.70;;;13.98;;
75814;SDS011;64451;45.574;14.224;2023-02-03T02:08:13;58.47;;;17.90;;
75814;SDS011;64451;45.574;14.224;2023-02-03T02:10:14;32.88;;;14.07;;
75814;SDS011;64451;45.574;14.224;2023-02-03T02:12:15;42.03;;;15.25;;
75814;SDS011;64451;45.574;14.224;2023-02-03T02:14:15;36.13;;;13.05;;
75814;SDS011;64451;45.574;14.224;2023-02-03T02:24:10;27.92;;;8.82;;
75814;SDS011;64451;45.574;14.224;2023-02-03T02:30:59;30.30;;;14.50;;
75814;SDS011;64451;45.574;14.224;2023-02-03T02:33:21;45.53;;;16.50;;
75814;SDS011;64451;45.574;14.224;2023-02-03T02:44:45;38.83;;;16.73;;
75814;SDS011;64451;45.574;14.224;2023-02-03T02:46:57;34.92;;;14.30;;
75814;SDS011;64451;45.574;14.224;2023-02-03T02:51:56;35.35;;;11.75;;
75814;SDS011;64451;45.574;14.224;2023-02-03T02:54:02;26.00;;;11.25;;
75814;SDS011;64451;45.574;14.224;2023-02-03T02:56:06;38.33;;;14.65;;
75814;SDS011;64451;45.574;14.224;2023-02-03T02:58:10;40.70;;;17.15;;
75814;SDS011;64451;45.574;14.224;2023-02-03T03:00:14;37.45;;;14.10;;
75814;SDS011;64451;45.574;14.224;2023-02-03T03:02:14;49.53;;;15.60;;
75814;SDS011;64451;45.574;14.224;2023-02-03T03:04:18;35.55;;;14.30;;
75814;SDS011;64451;45.574;14.224;2023-02-03T03:06:28;40.58;;;15.25;;
75814;SDS011;64451;45.574;14.224;2023-02-03T03:08:37;43.35;;;16.50;;
75814;SDS011;64451;45.574;14.224;2023-02-03T03:10:45;38.85;;;15.80;;
75814;SDS011;64451;45.574;14.224;2023-02-03T03:12:48;32.65;;;14.00;;
75814;SDS011;64451;45.574;14.224;2023-02-03T03:14:58;50.13;;;14.98;;
75814;SDS011;64451;45.574;14.224;2023-02-03T03:17:03;32.70;;;12.95;;
75814;SDS011;64451;45.574;14.224;2023-02-03T03:19:08;27.23;;;12.35;;
75814;SDS011;64451;45.574;14.224;2023-02-03T03:21:13;33.50;;;13.35;;
75814;SDS011;64451;45.574;14.224;2023-02-03T03:23:23;43.17;;;15.15;;
75814;SDS011;64451;45.574;14.224;2023-02-03T03:25:30;31.15;;;14.65;;
75814;SDS011;64451;45.574;14.224;2023-02-03T03:27:38;57.15;;;13.38;;
75814;SDS011;64451;45.574;14.224;2023-02-03T03:29:45;37.67;;;13.32;;
75814;SDS011;64451;45.574;14.224;2023-02-03T03:31:50;37.88;;;16.45;;
75814;SDS011;64451;45.574;14.224;2023-02-03T03:33:50;46.58;;;14.18;;
75814;SDS011;64451;45.574;14.224;2023-02-03T03:35:56;33.53;;;12.05;;
75814;SDS011;64451;45.574;14.224;2023-02-03T03:37:58;35.92;;;12.95;;
75814;SDS011;64451;45.574;14.224;2023-02-03T03:44:19;41.22;;;14.07;;
75814;SDS011;64451;45.574;14.224;2023-02-03T03:46:29;31.40;;;14.57;;
75814;SDS011;64451;45.574;14.224;2023-02-03T03:50:50;38.05;;;14.82;;
75814;SDS011;64451;45.574;14.224;2023-02-03T03:52:56;39.78;;;12.75;;
75814;SDS011;64451;45.574;14.224;2023-02-03T03:54:59;41.50;;;14.05;;
75814;SDS011;64451;45.574;14.224;2023-02-03T03:57:05;38.08;;;14.20;;
75814;SDS011;64451;45.574;14.224;2023-02-03T03:59:14;40.22;;;12.82;;
75814;SDS011;64451;45.574;14.224;2023-02-03T04:01:20;61.22;;;13.40;;
75814;SDS011;64451;45.574;14.224;2023-02-03T04:03:23;33.53;;;12.90;;
75814;SDS011;64451;45.574;14.224;2023-02-03T04:05:27;51.22;;;15.60;;
75814;SDS011;64451;45.574;14.224;2023-02-03T04:07:40;38.45;;;15.27;;
75814;SDS011;64451;45.574;14.224;2023-02-03T04:09:42;43.90;;;12.00;;
75814;SDS011;64451;45.574;14.224;2023-02-03T04:11:43;36.17;;;13.23;;
75814;SDS011;64451;45.574;14.224;2023-02-03T04:14:01;33.95;;;15.52;;
75814;SDS011;64451;45.574;14.224;2023-02-03T04:16:02;49.58;;;14.43;;
75814;SDS011;64451;45.574;14.224;2023-02-03T04:18:02;50.97;;;16.58;;
75814;SDS011;64451;45.574;14.224;2023-02-03T04:20:03;33.83;;;13.00;;
75814;SDS011;64451;45.574;14.224;2023-02-03T04:22:04;41.85;;;13.82;;
75814;SDS011;64451;45.574;14.224;2023-02-03T04:24:05;36.35;;;17.05;;
75814;SDS011;64451;45.574;14.224;2023-02-03T04:26:06;40.83;;;16.55;;
75814;SDS011;64451;45.574;14.224;2023-02-03T04:28:06;45.45;;;14.15;;
75814;SDS011;64451;45.574;14.224;2023-02-03T04:30:07;37.97;;;13.57;;
75814;SDS011;64451;45.574;14.224;2023-02-03T04:32:08;40.65;;;17.60;;
75814;SDS011;64451;45.574;14.224;2023-02-03T04:34:09;40.70;;;16.08;;
75814;SDS011;64451;45.574;14.224;2023-02-03T04:36:09;28.90;;;15.05;;
75814;SDS011;64451;45.574;14.224;2023-02-03T04:38:09;47.65;;;16.33;;
75814;SDS011;64451;45.574;14.224;2023-02-03T04:40:10;48.10;;;16.05;;
75814;SDS011;64451;45.574;14.224;2023-02-03T04:42:11;40.00;;;13.75;;
75814;SDS011;64451;45.574;14.224;2023-02-03T04:44:11;42.60;;;14.48;;
75814;SDS011;64451;45.574;14.224;2023-02-03T04:46:11;33.50;;;13.45;;
75814;SDS011;64451;45.574;14.224;2023-02-03T04:48:12;43.20;;;15.63;;
75814;SDS011;64451;45.574;14.224;2023-02-03T04:50:12;22.83;;;12.48;;
75814;SDS011;64451;45.574;14.224;2023-02-03T04:52:13;38.83;;;13.05;;
75814;SDS011;64451;45.574;14.224;2023-02-03T04:54:14;36.97;;;13.70;;
75814;SDS011;64451;45.574;14.224;2023-02-03T04:56:14;37.45;;;12.95;;
75814;SDS011;64451;45.574;14.224;2023-02-03T04:58:15;47.40;;;14.88;;
75814;SDS011;64451;45.574;14.224;2023-02-03T05:00:15;29.48;;;12.55;;
75814;SDS011;64451;45.574;14.224;2023-02-03T05:02:16;28.92;;;14.20;;
75814;SDS011;64451;45.574;14.224;2023-02-03T05:04:16;37.03;;;14.68;;
75814;SDS011;64451;45.574;14.224;2023-02-03T05:06:21;37.33;;;12.07;;
75814;SDS011;64451;45.574;14.224;2023-02-03T05:08:25;47.92;;;12.40;;
75814;SDS011;64451;45.574;14.224;2023-02-03T05:10:25;41.08;;;15.27;;
75814;SDS011;64451;45.574;14.224;2023-02-03T05:12:25;23.90;;;13.00;;
75814;SDS011;64451;45.574;14.224;2023-02-03T05:14:26;32.40;;;12.93;;
75814;SDS011;64451;45.574;14.224;2023-02-03T05:16:26;36.53;;;13.73;;
75814;SDS011;64451;45.574;14.224;2023-02-03T05:18:26;27.83;;;14.07;;
75814;SDS011;64451;45.574;14.224;2023-02-03T05:20:27;35.60;;;11.15;;
75814;SDS011;64451;45.574;14.224;2023-02-03T05:22:27;34.55;;;12.63;;
75814;SDS011;64451;45.574;14.224;2023-02-03T05:24:27;33.85;;;12.63;;
75814;SDS011;64451;45.574;14.224;2023-02-03T05:26:28;41.13;;;10.13;;
75814;SDS011;64451;45.574;14.224;2023-02-03T05:28:28;33.17;;;12.48;;
75814;SDS011;64451;45.574;14.224;2023-02-03T05:30:28;25.25;;;11.93;;
75814;SDS011;64451;45.574;14.224;2023-02-03T05:32:29;41.30;;;11.00;;
75814;SDS011;64451;45.574;14.224;2023-02-03T05:34:29;39.53;;;11.90;;
75814;SDS011;64451;45.574;14.224;2023-02-03T05:36:29;26.42;;;10.10;;
75814;SDS011;64451;45.574;14.224;2023-02-03T05:38:30;21.90;;;11.95;;
75814;SDS011;64451;45.574;14.224;2023-02-03T05:40:30;21.83;;;12.85;;
75814;SDS011;64451;45.574;14.224;2023-02-03T05:42:49;31.92;;;12.38;;
75814;SDS011;64451;45.574;14.224;2023-02-03T05:44:50;44.42;;;11.82;;
75814;SDS011;64451;45.574;14.224;2023-02-03T05:46:54;28.80;;;13.38;;
75814;SDS011;64451;45.574;14.224;2023-02-03T05:48:55;34.95;;;13.95;;
75814;SDS011;64451;45.574;14.224;2023-02-03T05:50:55;26.13;;;12.82;;
75814;SDS011;64451;45.574;14.224;2023-02-03T05:52:56;38.00;;;11.00;;
75814;SDS011;64451;45.574;14.224;2023-02-03T05:54:56;27.23;;;12.10;;
75814;SDS011;64451;45.574;14.224;2023-02-03T05:56:57;27.58;;;10.18;;
75814;SDS011;64451;45.574;14.224;2023-02-03T05:58:57;43.38;;;12.65;;
75814;SDS011;64451;45.574;14.224;2023-02-03T06:00:57;24.25;;;10.68;;
75814;SDS011;64451;45.574;14.224;2023-02-03T06:02:58;26.02;;;12.73;;
75814;SDS011;64451;45.574;14.224;2023-02-03T06:05:01;26.50;;;13.65;;
75814;SDS011;64451;45.574;14.224;2023-02-03T06:07:01;33.78;;;11.68;;
75814;SDS011;64451;45.574;14.224;2023-02-03T06:09:05;38.65;;;12.30;;
75814;SDS011;64451;45.574;14.224;2023-02-03T06:11:07;23.67;;;11.65;;
75814;SDS011;64451;45.574;14.224;2023-02-03T06:13:12;25.75;;;12.40;;
75814;SDS011;64451;45.574;14.224;2023-02-03T06:15:14;32.47;;;11.68;;
75814;SDS011;64451;45.574;14.224;2023-02-03T06:17:15;30.30;;;10.25;;
75814;SDS011;64451;45.574;14.224;2023-02-03T06:19:15;29.23;;;10.40;;
75814;SDS011;64451;45.574;14.224;2023-02-03T06:21:15;34.75;;;10.25;;
75814;SDS011;64451;45.574;14.224;2023-02-03T06:23:16;23.10;;;13.32;;
75814;SDS011;64451;45.574;14.224;2023-02-03T06:25:17;25.00;;;12.27;;
75814;SDS011;64451;45.574;14.224;2023-02-03T06:27:18;29.27;;;12.27;;
75814;SDS011;64451;45.574;14.224;2023-02-03T06:29:18;24.45;;;10.57;;
75814;SDS011;64451;45.574;14.224;2023-02-03T06:31:18;18.55;;;9.52;;
75814;SDS011;64451;45.574;14.224;2023-02-03T06:33:19;22.27;;;11.70;;
75814;SDS011;64451;45.574;14.224;2023-02-03T06:35:19;31.58;;;12.15;;
75814;SDS011;64451;45.574;14.224;2023-02-03T06:37:20;27.52;;;12.35;;
75814;SDS011;64451;45.574;14.224;2023-02-03T06:39:20;21.45;;;10.05;;
75814;SDS011;64451;45.574;14.224;2023-02-03T06:41:21;29.33;;;10.95;;
75814;SDS011;64451;45.574;14.224;2023-02-03T06:43:26;31.73;;;10.43;;
75814;SDS011;64451;45.574;14.224;2023-02-03T06:45:26;32.47;;;12.73;;
75814;SDS011;64451;45.574;14.224;2023-02-03T06:47:27;23.73;;;10.98;;
75814;SDS011;64451;45.574;14.224;2023-02-03T06:49:28;33.30;;;11.98;;
75814;SDS011;64451;45.574;14.224;2023-02-03T06:51:28;30.30;;;14.93;;
75814;SDS011;64451;45.574;14.224;2023-02-03T06:53:29;46.92;;;13.95;;
75814;SDS011;64451;45.574;14.224;2023-02-03T06:55:29;33.55;;;12.00;;
75814;SDS011;64451;45.574;14.224;2023-02-03T06:57:29;40.78;;;14.80;;
75814;SDS011;64451;45.574;14.224;2023-02-03T06:59:30;24.48;;;12.32;;
75814;SDS011;64451;45.574;14.224;2023-02-03T07:01:31;32.60;;;11.70;;
75814;SDS011;64451;45.574;14.224;2023-02-03T07:03:31;53.13;;;18.35;;
75814;SDS011;64451;45.574;14.224;2023-02-03T07:05:32;35.00;;;16.60;;
75814;SDS011;64451;45.574;14.224;2023-02-03T07:07:38;78.38;;;35.63;;
75814;SDS011;64451;45.574;14.224;2023-02-03T07:09:42;35.00;;;14.10;;
75814;SDS011;64451;45.574;14.224;2023-02-03T07:11:42;29.90;;;11.48;;
75814;SDS011;64451;45.574;14.224;2023-02-03T07:13:42;34.10;;;9.90;;
75814;SDS011;64451;45.574;14.224;2023-02-03T07:15:43;24.52;;;14.07;;
75814;SDS011;64451;45.574;14.224;2023-02-03T07:17:43;27.38;;;12.70;;
75814;SDS011;64451;45.574;14.224;2023-02-03T07:19:47;32.33;;;13.38;;
75814;SDS011;64451;45.574;14.224;2023-02-03T07:21:48;32.13;;;13.60;;
75814;SDS011;64451;45.574;14.224;2023-02-03T07:23:48;37.22;;;14.05;;
75814;SDS011;64451;45.574;14.224;2023-02-03T07:25:49;33.45;;;14.52;;
75814;SDS011;64451;45.574;14.224;2023-02-03T07:27:49;30.85;;;12.50;;
75814;SDS011;64451;45.574;14.224;2023-02-03T07:29:49;34.42;;;13.07;;
75814;SDS011;64451;45.574;14.224;2023-02-03T07:31:50;35.28;;;14.55;;
75814;SDS011;64451;45.574;14.224;2023-02-03T07:33:50;30.63;;;13.50;;
75814;SDS011;64451;45.574;14.224;2023-02-03T07:35:54;46.75;;;13.80;;
75814;SDS011;64451;45.574;14.224;2023-02-03T07:37:55;27.98;;;13.50;;
75814;SDS011;64451;45.574;14.224;2023-02-03T07:39:56;31.00;;;15.02;;
75814;SDS011;64451;45.574;14.224;2023-02-03T07:41:56;34.88;;;14.98;;
75814;SDS011;64451;45.574;14.224;2023-02-03T07:43:57;34.60;;;15.75;;
75814;SDS011;64451;45.574;14.224;2023-02-03T07:45:57;36.42;;;14.32;;
75814;SDS011;64451;45.574;14.224;2023-02-03T07:47:58;47.00;;;16.15;;
75814;SDS011;64451;45.574;14.224;2023-02-03T07:49:58;38.83;;;15.20;;
75814;SDS011;64451;45.574;14.224;2023-02-03T07:51:58;39.15;;;16.35;;
75814;SDS011;64451;45.574;14.224;2023-02-03T07:53:59;36.90;;;13.73;;
75814;SDS011;64451;45.574;14.224;2023-02-03T07:55:59;39.97;;;15.05;;
75814;SDS011;64451;45.574;14.224;2023-02-03T07:58:00;31.85;;;15.18;;
75814;SDS011;64451;45.574;14.224;2023-02-03T08:00:01;35.17;;;12.73;;
75814;SDS011;64451;45.574;14.224;2023-02-03T08:02:02;34.80;;;14.70;;
75814;SDS011;64451;45.574;14.224;2023-02-03T08:04:03;25.40;;;13.02;;
75814;SDS011;64451;45.574;14.224;2023-02-03T08:06:04;40.38;;;12.38;;
75814;SDS011;64451;45.574;14.224;2023-02-03T08:08:05;43.17;;;18.08;;
75814;SDS011;64451;45.574;14.224;2023-02-03T08:10:06;37.95;;;16.60;;
75814;SDS011;64451;45.574;14.224;2023-02-03T08:12:07;33.53;;;9.63;;
75814;SDS011;64451;45.574;14.224;2023-02-03T08:14:07;26.52;;;10.38;;
75814;SDS011;64451;45.574;14.224;2023-02-03T08:16:07;18.85;;;9.95;;
75814;SDS011;64451;45.574;14.224;2023-02-03T08:18:08;25.85;;;11.07;;
75814;SDS011;64451;45.574;14.224;2023-02-03T08:20:09;29.55;;;13.00;;
75814;SDS011;64451;45.574;14.224;2023-02-03T08:22:10;37.55;;;13.40;;
75814;SDS011;64451;45.574;14.224;2023-02-03T08:24:15;40.83;;;14.57;;
75814;SDS011;64451;45.574;14.224;2023-02-03T08:26:15;31.95;;;13.23;;
75814;SDS011;64451;45.574;14.224;2023-02-03T08:28:16;38.33;;;15.93;;
75814;SDS011;64451;45.574;14.224;2023-02-03T08:30:16;51.85;;;15.75;;
75814;SDS011;64451;45.574;14.224;2023-02-03T08:32:18;53.72;;;19.75;;
75814;SDS011;64451;45.574;14.224;2023-02-03T08:34:20;47.05;;;19.45;;
75814;SDS011;64451;45.574;14.224;2023-02-03T08:36:20;53.05;;;19.45;;
75814;SDS011;64451;45.574;14.224;2023-02-03T08:38:21;50.88;;;18.55;;
75814;SDS011;64451;45.574;14.224;2023-02-03T08:40:21;45.70;;;17.67;;
75814;SDS011;64451;45.574;14.224;2023-02-03T08:42:21;54.63;;;18.05;;
75814;SDS011;64451;45.574;14.224;2023-02-03T08:44:22;57.50;;;20.05;;
75814;SDS011;64451;45.574;14.224;2023-02-03T08:46:22;43.17;;;19.73;;
75814;SDS011;64451;45.574;14.224;2023-02-03T08:48:22;55.35;;;19.85;;
75814;SDS011;64451;45.574;14.224;2023-02-03T08:50:23;48.17;;;19.58;;
75814;SDS011;64451;45.574;14.224;2023-02-03T08:52:23;52.92;;;17.40;;
75814;SDS011;64451;45.574;14.224;2023-02-03T08:54:24;47.22;;;18.67;;
75814;SDS011;64451;45.574;14.224;2023-02-03T08:56:24;59.17;;;19.60;;
75814;SDS011;64451;45.574;14.224;2023-02-03T08:58:26;39.85;;;16.33;;
75814;SDS011;64451;45.574;14.224;2023-02-03T09:00:26;38.22;;;16.77;;
75814;SDS011;64451;45.574;14.224;2023-02-03T09:02:26;47.15;;;17.17;;
75814;SDS011;64451;45.574;14.224;2023-02-03T09:04:27;43.13;;;17.60;;
75814;SDS011;64451;45.574;14.224;2023-02-03T09:06:27;42.08;;;16.17;;
75814;SDS011;64451;45.574;14.224;2023-02-03T09:08:29;39.22;;;14.63;;
75814;SDS011;64451;45.574;14.224;2023-02-03T09:10:30;37.50;;;16.63;;
75814;SDS011;64451;45.574;14.224;2023-02-03T09:12:30;51.95;;;18.67;;
75814;SDS011;64451;45.574;14.224;2023-02-03T09:14:31;41.45;;;17.42;;
75814;SDS011;64451;45.574;14.224;2023-02-03T09:16:32;37.58;;;15.77;;
75814;SDS011;64451;45.574;14.224;2023-02-03T09:18:32;33.60;;;13.73;;
75814;SDS011;64451;45.574;14.224;2023-02-03T09:20:33;44.55;;;16.83;;
75814;SDS011;64451;45.574;14.224;2023-02-03T09:22:34;33.22;;;14.77;;
75814;SDS011;64451;45.574;14.224;2023-02-03T09:24:34;29.20;;;13.30;;
75814;SDS011;64451;45.574;14.224;2023-02-03T09:26:34;34.13;;;15.23;;
75814;SDS011;64451;45.574;14.224;2023-02-03T09:28:35;37.50;;;16.02;;
75814;SDS011;64451;45.574;14.224;2023-02-03T09:30:35;33.08;;;12.80;;
75814;SDS011;64451;45.574;14.224;2023-02-03T09:32:36;33.90;;;13.10;;
75814;SDS011;64451;45.574;14.224;2023-02-03T09:34:36;32.28;;;14.30;;
75814;SDS011;64451;45.574;14.224;2023-02-03T09:36:38;37.05;;;15.23;;
75814;SDS011;64451;45.574;14.224;2023-02-03T09:38:39;35.08;;;14.30;;
75814;SDS011;64451;45.574;14.224;2023-02-03T09:40:39;31.02;;;13.82;;
75814;SDS011;64451;45.574;14.224;2023-02-03T09:42:58;28.98;;;13.85;;
75814;SDS011;64451;45.574;14.224;2023-02-03T09:47:28;31.23;;;12.85;;
75814;SDS011;64451;45.574;14.224;2023-02-03T09:49:37;22.33;;;10.73;;
75814;SDS011;64451;45.574;14.224;2023-02-03T09:51:47;28.13;;;11.68;;
75814;SDS011;64451;45.574;14.224;2023-02-03T09:53:50;22.98;;;11.85;;
75814;SDS011;64451;45.574;14.224;2023-02-03T09:55:57;25.13;;;11.63;;
75814;SDS011;64451;45.574;14.224;2023-02-03T09:58:11;21.73;;;10.18;;
75814;SDS011;64451;45.574;14.224;2023-02-03T10:00:17;19.58;;;9.48;;
75814;SDS011;64451;45.574;14.224;2023-02-03T10:02:23;24.55;;;11.02;;
75814;SDS011;64451;45.574;14.224;2023-02-03T10:04:33;19.75;;;9.52;;
75814;SDS011;64451;45.574;14.224;2023-02-03T10:06:48;19.85;;;8.65;;
75814;SDS011;64451;45.574;14.224;2023-02-03T10:14:11;19.80;;;10.57;;
75814;SDS011;64451;45.574;14.224;2023-02-03T10:18:18;16.35;;;7.45;;
75814;SDS011;64451;45.574;14.224;2023-02-03T10:20:33;19.27;;;7.80;;
75814;SDS011;64451;45.574;14.224;2023-02-03T10:22:47;16.13;;;7.97;;
75814;SDS011;64451;45.574;14.224;2023-02-03T10:26:58;19.85;;;8.55;;
75814;SDS011;64451;45.574;14.224;2023-02-03T10:29:13;24.02;;;9.15;;
75814;SDS011;64451;45.574;14.224;2023-02-03T10:31:19;21.38;;;8.98;;
75814;SDS011;64451;45.574;14.224;2023-02-03T10:33:28;18.10;;;9.65;;
75814;SDS011;64451;45.574;14.224;2023-02-03T10:37:49;24.55;;;9.25;;
75814;SDS011;64451;45.574;14.224;2023-02-03T10:39:56;29.15;;;12.00;;
75814;SDS011;64451;45.574;14.224;2023-02-03T10:42:02;25.17;;;10.18;;
75814;SDS011;64451;45.574;14.224;2023-02-03T10:44:40;23.70;;;9.70;;
75814;SDS011;64451;45.574;14.224;2023-02-03T10:46:51;27.35;;;11.05;;
75814;SDS011;64451;45.574;14.224;2023-02-03T10:48:52;19.45;;;10.40;;
75814;SDS011;64451;45.574;14.224;2023-02-03T10:50:59;20.15;;;10.15;;
75814;SDS011;64451;45.574;14.224;2023-02-03T10:53:18;22.38;;;10.70;;
75814;SDS011;64451;45.574;14.224;2023-02-03T10:57:26;22.65;;;10.55;;
75814;SDS011;64451;45.574;14.224;2023-02-03T10:59:28;27.30;;;10.77;;
75814;SDS011;64451;45.574;14.224;2023-02-03T11:01:45;22.95;;;8.57;;
75814;SDS011;64451;45.574;14.224;2023-02-03T11:03:58;27.48;;;9.80;;
75814;SDS011;64451;45.574;14.224;2023-02-03T11:06:04;22.13;;;9.88;;
75814;SDS011;64451;45.574;14.224;2023-02-03T11:08:14;25.17;;;10.82;;
75814;SDS011;64451;45.574;14.224;2023-02-03T11:10:25;22.57;;;11.73;;
75814;SDS011;64451;45.574;14.224;2023-02-03T11:12:39;24.02;;;10.23;;
75814;SDS011;64451;45.574;14.224;2023-02-03T11:14:40;15.45;;;7.00;;
75814;SDS011;64451;45.574;14.224;2023-02-03T11:16:43;15.48;;;7.53;;
75814;SDS011;64451;45.574;14.224;2023-02-03T11:20:52;21.05;;;7.40;;
75814;SDS011;64451;45.574;14.224;2023-02-03T11:22:52;21.30;;;8.10;;
75814;SDS011;64451;45.574;14.224;2023-02-03T11:24:53;23.42;;;9.40;;
75814;SDS011;64451;45.574;14.224;2023-02-03T11:28:59;26.15;;;9.07;;
75814;SDS011;64451;45.574;14.224;2023-02-03T11:31:02;19.02;;;8.02;;
75814;SDS011;64451;45.574;14.224;2023-02-03T11:33:02;18.90;;;9.10;;
75814;SDS011;64451;45.574;14.224;2023-02-03T11:37:33;17.90;;;8.52;;
75814;SDS011;64451;45.574;14.224;2023-02-03T11:39:35;21.40;;;8.55;;
75814;SDS011;64451;45.574;14.224;2023-02-03T11:41:36;24.73;;;9.05;;
75814;SDS011;64451;45.574;14.224;2023-02-03T11:43:38;21.25;;;9.95;;
75814;SDS011;64451;45.574;14.224;2023-02-03T11:45:39;21.17;;;10.23;;
75814;SDS011;64451;45.574;14.224;2023-02-03T11:47:47;41.70;;;15.48;;
75814;SDS011;64451;45.574;14.224;2023-02-03T11:52:37;25.33;;;10.88;;
75814;SDS011;64451;45.574;14.224;2023-02-03T11:54:50;17.77;;;8.32;;
75814;SDS011;64451;45.574;14.224;2023-02-03T11:59:59;15.25;;;5.90;;
75814;SDS011;64451;45.574;14.224;2023-02-03T12:04:25;9.40;;;3.80;;
75814;SDS011;64451;45.574;14.224;2023-02-03T12:18:15;10.10;;;2.42;;
75814;SDS011;64451;45.574;14.224;2023-02-03T12:20:34;5.03;;;2.00;;
75814;SDS011;64451;45.574;14.224;2023-02-03T12:22:50;6.32;;;2.78;;
75814;SDS011;64451;45.574;14.224;2023-02-03T12:29:57;5.70;;;2.20;;
75814;SDS011;64451;45.574;14.224;2023-02-03T12:39:05;9.13;;;2.38;;
75814;SDS011;64451;45.574;14.224;2023-02-03T12:41:26;4.47;;;2.28;;
75814;SDS011;64451;45.574;14.224;2023-02-03T12:43:34;4.68;;;2.13;;
75814;SDS011;64451;45.574;14.224;2023-02-03T12:45:38;4.85;;;2.35;;
75814;SDS011;64451;45.574;14.224;2023-02-03T12:49:56;6.68;;;2.67;;
75814;SDS011;64451;45.574;14.224;2023-02-03T12:52:10;5.85;;;2.22;;
75814;SDS011;64451;45.574;14.224;2023-02-03T12:54:27;5.72;;;2.33;;
75814;SDS011;64451;45.574;14.224;2023-02-03T12:56:34;6.32;;;2.38;;
75814;SDS011;64451;45.574;14.224;2023-02-03T12:58:40;4.88;;;2.00;;
75814;SDS011;64451;45.574;14.224;2023-02-03T13:00:58;6.03;;;2.17;;
75814;SDS011;64451;45.574;14.224;2023-02-03T13:04:05;5.55;;;2.58;;
75814;SDS011;64451;45.574;14.224;2023-02-03T13:05:43;5.93;;;2.38;;
75814;SDS011;64451;45.574;14.224;2023-02-03T13:09:59;8.40;;;2.13;;
75814;SDS011;64451;45.574;14.224;2023-02-03T13:12:10;11.10;;;2.60;;
75814;SDS011;64451;45.574;14.224;2023-02-03T13:14:36;4.82;;;2.20;;
75814;SDS011;64451;45.574;14.224;2023-02-03T13:16:42;11.77;;;3.70;;
75814;SDS011;64451;45.574;14.224;2023-02-03T13:18:45;7.15;;;2.45;;
75814;SDS011;64451;45.574;14.224;2023-02-03T13:20:51;4.22;;;1.98;;
75814;SDS011;64451;45.574;14.224;2023-02-03T13:22:53;3.43;;;1.93;;
75814;SDS011;64451;45.574;14.224;2023-02-03T13:25:08;4.20;;;2.05;;